createdAt,value
2019-05-01T00:00:35.482Z,929.63
2019-05-01T00:01:35.457Z,929.67
2019-05-01T00:02:35.431Z,929.63
2019-05-01T00:03:35.415Z,929.56
2019-05-01T00:04:35.385Z,929.64
2019-05-01T00:05:35.370Z,929.60
2019-05-01T00:06:35.356Z,929.64
2019-05-01T00:07:35.306Z,929.68
2019-05-01T00:08:35.296Z,929.65
2019-05-01T00:09:35.279Z,929.69
2019-05-01T00:10:35.254Z,929.75
2019-05-01T00:11:35.229Z,929.76
2019-05-01T00:12:35.194Z,929.79
2019-05-01T00:13:35.199Z,929.79
2019-05-01T00:14:35.170Z,929.74
2019-05-01T00:15:35.143Z,929.77
2019-05-01T00:16:35.133Z,929.77
2019-05-01T00:17:35.112Z,929.73
2019-05-01T00:18:35.092Z,929.67
2019-05-01T00:19:35.061Z,929.63
2019-05-01T00:20:35.155Z,929.61
2019-05-01T00:21:35.027Z,929.62
2019-05-01T00:22:35.009Z,929.62
2019-05-01T00:23:34.953Z,929.66
2019-05-01T00:24:34.948Z,929.68
2019-05-01T00:25:34.926Z,929.72
2019-05-01T00:26:34.892Z,929.78
2019-05-01T00:27:34.866Z,929.82
2019-05-01T00:28:34.872Z,929.84
2019-05-01T00:29:34.847Z,929.75
2019-05-01T00:30:34.824Z,929.76
2019-05-01T00:31:34.805Z,929.76
2019-05-01T00:32:34.759Z,929.71
2019-05-01T00:33:34.764Z,929.71
2019-05-01T00:34:34.746Z,929.71
2019-05-01T00:35:34.722Z,929.68
2019-05-01T00:36:34.687Z,929.70
2019-05-01T00:37:34.676Z,929.68
2019-05-01T00:38:34.644Z,929.71
2019-05-01T00:39:34.622Z,929.72
2019-05-01T00:40:34.586Z,929.70
2019-05-01T00:41:34.591Z,929.71
2019-05-01T00:42:34.539Z,929.72
2019-05-01T00:43:34.548Z,929.71
2019-05-01T00:44:34.527Z,929.71
2019-05-01T00:45:34.505Z,929.72
2019-05-01T00:46:34.466Z,929.69
2019-05-01T00:47:34.445Z,929.70
2019-05-01T00:48:34.408Z,929.70
2019-05-01T00:49:34.389Z,929.70
2019-05-01T00:50:34.379Z,929.81
2019-05-01T00:51:34.359Z,929.85
2019-05-01T00:52:34.354Z,929.83
2019-05-01T00:53:34.326Z,929.86
2019-05-01T00:54:34.301Z,929.78
2019-05-01T00:55:34.270Z,929.84
2019-05-01T00:56:34.248Z,929.82
2019-05-01T00:57:34.227Z,929.83
2019-05-01T00:58:34.223Z,929.77
2019-05-01T00:59:34.181Z,929.85
2019-05-01T01:00:42.841Z,929.92
2019-05-01T01:01:34.128Z,929.92
2019-05-01T01:02:34.129Z,929.91
2019-05-01T01:03:34.104Z,929.96
2019-05-01T01:04:34.082Z,929.97
2019-05-01T01:05:34.060Z,929.96
2019-05-01T01:06:34.030Z,929.97
2019-05-01T01:07:34.012Z,929.97
2019-05-01T01:08:34.000Z,929.95
2019-05-01T01:09:33.977Z,929.96
2019-05-01T01:10:33.962Z,930.00
2019-05-01T01:11:33.908Z,929.99
2019-05-01T01:12:33.914Z,930.00
2019-05-01T01:13:33.889Z,930.00
2019-05-01T01:14:33.865Z,929.97
2019-05-01T01:15:33.842Z,929.98
2019-05-01T01:16:33.800Z,929.96
2019-05-01T01:17:33.773Z,929.92
2019-05-01T01:18:33.770Z,929.92
2019-05-01T01:19:33.759Z,929.92
2019-05-01T01:20:33.738Z,929.89
2019-05-01T01:21:33.705Z,929.88
2019-05-01T01:22:33.696Z,929.92
2019-05-01T01:23:33.671Z,929.91
2019-05-01T01:24:33.621Z,929.92
2019-05-01T01:25:33.628Z,929.95
2019-05-01T01:26:33.584Z,929.90
2019-05-01T01:27:33.555Z,929.88
2019-05-01T01:28:33.564Z,929.83
2019-05-01T01:29:33.529Z,929.80
2019-05-01T01:30:33.494Z,929.83
2019-05-01T01:31:33.497Z,929.82
2019-05-01T01:32:33.477Z,929.80
2019-05-01T01:33:33.451Z,929.80
2019-05-01T01:34:33.429Z,929.78
2019-05-01T01:35:33.416Z,929.78
2019-05-01T01:36:33.383Z,929.80
2019-05-01T01:37:33.339Z,929.75
2019-05-01T01:38:33.318Z,929.83
2019-05-01T01:39:33.320Z,929.86
2019-05-01T01:40:33.292Z,929.85
2019-05-01T01:41:33.270Z,929.87
2019-05-01T01:42:33.242Z,929.87
2019-05-01T01:43:33.236Z,929.86
2019-05-01T01:44:33.211Z,929.81
2019-05-01T01:45:33.186Z,929.81
2019-05-01T01:46:33.166Z,929.79
2019-05-01T01:47:33.117Z,929.81
2019-05-01T01:48:33.126Z,929.79
2019-05-01T01:49:33.091Z,929.81
2019-05-01T01:50:33.079Z,929.78
2019-05-01T01:51:33.043Z,929.78
2019-05-01T01:52:33.007Z,929.83
2019-05-01T01:53:32.986Z,929.82
2019-05-01T01:54:32.980Z,929.84
2019-05-01T01:55:32.969Z,929.83
2019-05-01T01:56:32.948Z,929.84
2019-05-01T01:57:32.918Z,929.88
2019-05-01T01:58:32.900Z,929.86
2019-05-01T01:59:32.867Z,929.82
2019-05-01T02:00:32.847Z,929.73
2019-05-01T02:01:32.838Z,929.74
2019-05-01T02:02:32.805Z,929.75
2019-05-01T02:03:32.796Z,929.70
2019-05-01T02:04:32.742Z,929.71
2019-05-01T02:05:32.757Z,929.72
2019-05-01T02:06:32.726Z,929.67
2019-05-01T02:07:32.703Z,929.70
2019-05-01T02:08:32.681Z,929.71
2019-05-01T02:09:32.663Z,929.84
2019-05-01T02:10:42.643Z,929.82
2019-05-01T02:11:32.608Z,929.76
2019-05-01T02:12:32.590Z,929.84
2019-05-01T02:13:32.562Z,929.85
2019-05-01T02:14:32.554Z,929.85
2019-05-01T02:15:32.529Z,929.83
2019-05-01T02:16:32.497Z,929.85
2019-05-01T02:17:32.490Z,929.83
2019-05-01T02:18:32.452Z,929.82
2019-05-01T02:19:32.431Z,929.84
2019-05-01T02:20:32.424Z,929.79
2019-05-01T02:21:32.370Z,929.83
2019-05-01T02:22:32.380Z,929.79
2019-05-01T02:23:32.353Z,929.75
2019-05-01T02:24:32.322Z,929.71
2019-05-01T02:25:32.317Z,929.74
2019-05-01T02:26:32.286Z,929.72
2019-05-01T02:27:32.258Z,929.69
2019-05-01T02:28:32.245Z,929.64
2019-05-01T02:29:32.197Z,929.58
2019-05-01T02:30:32.179Z,929.58
2019-05-01T02:31:32.152Z,929.58
2019-05-01T02:32:32.159Z,929.56
2019-05-01T02:33:32.130Z,929.55
2019-05-01T02:34:32.123Z,929.51
2019-05-01T02:35:32.084Z,929.51
2019-05-01T02:36:32.074Z,929.43
2019-05-01T02:37:32.056Z,929.47
2019-05-01T02:38:32.000Z,929.46
2019-05-01T02:39:31.983Z,929.48
2019-05-01T02:40:31.973Z,929.46
2019-05-01T02:41:31.955Z,929.42
2019-05-01T02:42:31.933Z,929.45
2019-05-01T02:43:31.922Z,929.46
2019-05-01T02:44:31.900Z,929.49
2019-05-01T02:45:31.969Z,929.54
2019-05-01T02:46:31.863Z,929.60
2019-05-01T02:47:31.838Z,929.61
2019-05-01T02:48:31.804Z,929.61
2019-05-01T02:49:31.775Z,929.62
2019-05-01T02:50:31.753Z,929.62
2019-05-01T02:51:31.744Z,929.61
2019-05-01T02:52:31.695Z,929.57
2019-05-01T02:53:31.701Z,929.55
2019-05-01T02:54:31.674Z,929.55
2019-05-01T02:55:31.644Z,929.54
2019-05-01T02:56:31.634Z,929.53
2019-05-01T02:57:31.617Z,929.47
2019-05-01T02:58:31.577Z,929.48
2019-05-01T02:59:31.567Z,929.46
2019-05-01T03:00:31.547Z,929.44
2019-05-01T03:01:45.722Z,929.36
2019-05-01T03:02:31.501Z,929.35
2019-05-01T03:03:31.481Z,929.41
2019-05-01T03:04:31.454Z,929.42
2019-05-01T03:05:31.474Z,929.44
2019-05-01T03:06:31.429Z,929.42
2019-05-01T03:07:31.398Z,929.41
2019-05-01T03:08:31.358Z,929.41
2019-05-01T03:09:31.347Z,929.41
2019-05-01T03:10:31.316Z,929.40
2019-05-01T03:11:31.295Z,929.37
2019-05-01T03:12:31.253Z,929.39
2019-05-01T03:13:31.238Z,929.40
2019-05-01T03:14:31.219Z,929.40
2019-05-01T03:15:31.190Z,929.39
2019-05-01T03:16:31.181Z,929.37
2019-05-01T03:17:31.164Z,929.39
2019-05-01T03:18:31.150Z,929.36
2019-05-01T03:19:31.126Z,929.39
2019-05-01T03:20:31.104Z,929.40
2019-05-01T03:21:31.065Z,929.38
2019-05-01T03:22:31.035Z,929.36
2019-05-01T03:23:31.010Z,929.36
2019-05-01T03:24:31.005Z,929.42
2019-05-01T03:25:30.998Z,929.42
2019-05-01T03:26:30.962Z,929.46
2019-05-01T03:27:30.941Z,929.46
2019-05-01T03:28:30.903Z,929.46
2019-05-01T03:29:30.912Z,929.46
2019-05-01T03:30:30.882Z,929.46
2019-05-01T03:31:30.849Z,929.44
2019-05-01T03:32:30.836Z,929.45
2019-05-01T03:33:30.809Z,929.41
2019-05-01T03:34:30.796Z,929.44
2019-05-01T03:35:30.783Z,929.44
2019-05-01T03:36:30.737Z,929.45
2019-05-01T03:37:30.728Z,929.48
2019-05-01T03:38:30.697Z,929.47
2019-05-01T03:39:30.674Z,929.43
2019-05-01T03:40:30.633Z,929.43
2019-05-01T03:41:30.610Z,929.37
2019-05-01T03:42:30.621Z,929.34
2019-05-01T03:43:30.593Z,929.31
2019-05-01T03:44:30.569Z,929.31
2019-05-01T03:45:33.952Z,929.31
2019-05-01T03:46:30.512Z,929.35
2019-05-01T03:47:30.491Z,929.26
2019-05-01T03:48:30.490Z,929.29
2019-05-01T03:49:30.463Z,929.30
2019-05-01T03:50:30.437Z,929.33
2019-05-01T03:51:30.387Z,929.29
2019-05-01T03:52:30.386Z,929.29
2019-05-01T03:53:30.369Z,929.29
2019-05-01T03:54:30.344Z,929.30
2019-05-01T03:55:30.320Z,929.35
2019-05-01T03:56:30.284Z,929.29
2019-05-01T03:57:30.255Z,929.30
2019-05-01T03:58:30.255Z,929.31
2019-05-01T03:59:30.227Z,929.33
2019-05-01T04:00:30.207Z,929.31
2019-05-01T04:01:30.181Z,929.31
2019-05-01T04:02:33.819Z,929.30
2019-05-01T04:03:30.138Z,929.33
2019-05-01T04:04:30.166Z,929.30
2019-05-01T04:05:30.105Z,929.28
2019-05-01T04:06:30.087Z,929.26
2019-05-01T04:07:30.056Z,929.28
2019-05-01T04:08:30.035Z,929.23
2019-05-01T04:09:30.018Z,929.24
2019-05-01T04:10:29.957Z,929.20
2019-05-01T04:11:29.940Z,929.19
2019-05-01T04:12:29.940Z,929.24
2019-05-01T04:13:29.924Z,929.21
2019-05-01T04:14:29.890Z,929.25
2019-05-01T04:15:29.881Z,929.23
2019-05-01T04:16:29.852Z,929.19
2019-05-01T04:17:29.836Z,929.20
2019-05-01T04:18:29.818Z,929.21
2019-05-01T04:19:29.765Z,929.16
2019-05-01T04:20:29.766Z,929.16
2019-05-01T04:21:29.739Z,929.18
2019-05-01T04:22:29.729Z,929.15
2019-05-01T04:23:29.698Z,929.14
2019-05-01T04:24:29.674Z,929.17
2019-05-01T04:25:29.652Z,929.15
2019-05-01T04:26:29.634Z,929.11
2019-05-01T04:27:29.585Z,929.12
2019-05-01T04:28:29.575Z,929.10
2019-05-01T04:29:29.685Z,929.11
2019-05-01T04:30:29.532Z,929.08
2019-05-01T04:31:29.514Z,929.12
2019-05-01T04:32:29.496Z,929.12
2019-05-01T04:33:29.483Z,929.16
2019-05-01T04:34:29.440Z,929.10
2019-05-01T04:35:29.442Z,929.14
2019-05-01T04:36:29.395Z,929.13
2019-05-01T04:37:29.395Z,929.10
2019-05-01T04:38:29.355Z,929.01
2019-05-01T04:39:29.333Z,928.99
2019-05-01T04:40:29.305Z,929.00
2019-05-01T04:41:29.284Z,928.96
2019-05-01T04:42:29.264Z,928.97
2019-05-01T04:43:29.243Z,928.97
2019-05-01T04:44:29.197Z,928.98
2019-05-01T04:45:29.184Z,929.02
2019-05-01T04:46:29.155Z,929.00
2019-05-01T04:47:29.137Z,929.01
2019-05-01T04:48:29.127Z,929.02
2019-05-01T04:49:29.110Z,929.02
2019-05-01T04:50:29.092Z,929.06
2019-05-01T04:51:29.060Z,929.02
2019-05-01T04:52:29.051Z,929.01
2019-05-01T04:53:29.031Z,929.01
2019-05-01T04:54:29.009Z,928.96
2019-05-01T04:55:28.956Z,928.93
2019-05-01T04:56:28.947Z,928.93
2019-05-01T04:57:28.930Z,928.86
2019-05-01T04:58:28.901Z,928.84
2019-05-01T04:59:28.887Z,928.84
2019-05-01T05:00:28.844Z,928.80
2019-05-01T05:01:28.821Z,928.77
2019-05-01T05:02:28.818Z,928.76
2019-05-01T05:03:28.798Z,928.69
2019-05-01T05:04:28.777Z,928.72
2019-05-01T05:05:28.756Z,928.72
2019-05-01T05:06:28.724Z,928.72
2019-05-01T05:07:28.699Z,928.72
2019-05-01T05:08:28.685Z,928.72
2019-05-01T05:09:28.640Z,928.72
2019-05-01T05:10:28.652Z,928.75
2019-05-01T05:11:28.620Z,928.73
2019-05-01T05:12:28.611Z,928.71
2019-05-01T05:13:28.579Z,928.67
2019-05-01T05:14:28.556Z,928.63
2019-05-01T05:15:28.537Z,928.61
2019-05-01T05:16:28.501Z,928.68
2019-05-01T05:17:28.483Z,928.69
2019-05-01T05:18:28.451Z,928.65
2019-05-01T05:19:28.446Z,928.63
2019-05-01T05:20:28.398Z,928.62
2019-05-01T05:21:28.403Z,928.64
2019-05-01T05:22:28.376Z,928.59
2019-05-01T05:23:28.350Z,928.61
2019-05-01T05:24:28.319Z,928.61
2019-05-01T05:25:28.299Z,928.55
2019-05-01T05:26:28.284Z,928.61
2019-05-01T05:27:28.264Z,928.62
2019-05-01T05:28:31.075Z,928.64
2019-05-01T05:29:28.216Z,928.64
2019-05-01T05:30:28.197Z,928.64
2019-05-01T05:31:28.169Z,928.61
2019-05-01T05:32:28.136Z,928.62
2019-05-01T05:33:28.128Z,928.63
2019-05-01T05:34:28.160Z,928.65
2019-05-01T05:35:28.083Z,928.60
2019-05-01T05:36:28.026Z,928.62
2019-05-01T05:37:28.010Z,928.61
2019-05-01T05:38:28.009Z,928.65
2019-05-01T05:39:27.991Z,928.67
2019-05-01T05:40:27.959Z,928.67
2019-05-01T05:41:27.938Z,928.65
2019-05-01T05:42:27.919Z,928.64
2019-05-01T05:43:27.900Z,928.58
2019-05-01T05:44:27.870Z,928.62
2019-05-01T05:45:27.841Z,928.58
2019-05-01T05:46:27.825Z,928.65
2019-05-01T05:47:27.798Z,928.66
2019-05-01T05:48:27.757Z,928.68
2019-05-01T05:49:27.738Z,928.68
2019-05-01T05:50:27.742Z,928.66
2019-05-01T05:51:27.721Z,928.64
2019-05-01T05:52:27.687Z,928.67
2019-05-01T05:53:27.667Z,928.65
2019-05-01T05:54:27.648Z,928.65
2019-05-01T05:55:27.619Z,928.63
2019-05-01T05:56:27.601Z,928.60
2019-05-01T05:57:29.818Z,928.58
2019-05-01T05:58:27.528Z,928.55
2019-05-01T05:59:27.509Z,928.51
2019-05-01T06:00:27.505Z,928.54
2019-05-01T06:01:27.478Z,928.49
2019-05-01T06:02:27.453Z,928.49
2019-05-01T06:03:31.361Z,928.47
2019-05-01T06:04:27.395Z,928.50
2019-05-01T06:05:27.398Z,928.54
2019-05-01T06:06:27.369Z,928.56
2019-05-01T06:07:27.344Z,928.55
2019-05-01T06:08:27.314Z,928.60
2019-05-01T06:09:27.304Z,928.59
2019-05-01T06:10:27.281Z,928.62
2019-05-01T06:11:29.700Z,928.63
2019-05-01T06:12:27.237Z,928.60
2019-05-01T06:13:27.189Z,928.61
2019-05-01T06:14:31.307Z,928.61
2019-05-01T06:15:27.137Z,928.60
2019-05-01T06:16:27.137Z,928.61
2019-05-01T06:17:28.439Z,928.57
2019-05-01T06:18:27.074Z,928.60
2019-05-01T06:19:27.081Z,928.58
2019-05-01T06:20:27.685Z,928.59
2019-05-01T06:21:27.026Z,928.57
2019-05-01T06:22:27.011Z,928.57
2019-05-01T06:23:26.971Z,928.54
2019-05-01T06:24:26.940Z,928.53
2019-05-01T06:25:26.926Z,928.52
2019-05-01T06:26:26.884Z,928.50
2019-05-01T06:27:26.870Z,928.48
2019-05-01T06:28:29.456Z,928.48
2019-05-01T06:29:31.047Z,928.44
2019-05-01T06:30:26.816Z,928.44
2019-05-01T06:31:26.789Z,928.47
2019-05-01T06:32:28.893Z,928.49
2019-05-01T06:33:26.730Z,928.48
2019-05-01T06:34:28.635Z,928.53
2019-05-01T06:35:26.684Z,928.55
2019-05-01T06:36:26.685Z,928.57
2019-05-01T06:37:26.664Z,928.53
2019-05-01T06:38:26.642Z,928.58
2019-05-01T06:39:26.609Z,928.59
2019-05-01T06:40:26.565Z,928.60
2019-05-01T06:41:28.629Z,928.64
2019-05-01T06:42:26.542Z,928.63
2019-05-01T06:43:27.293Z,928.62
2019-05-01T06:44:26.506Z,928.59
2019-05-01T06:45:26.478Z,928.61
2019-05-01T06:46:27.354Z,928.62
2019-05-01T06:47:26.431Z,928.65
2019-05-01T06:48:26.408Z,928.61
2019-05-01T06:49:29.283Z,928.63
2019-05-01T06:50:26.367Z,928.55
2019-05-01T06:51:26.346Z,928.54
2019-05-01T06:52:29.295Z,928.54
2019-05-01T06:53:26.318Z,928.53
2019-05-01T06:54:26.273Z,928.54
2019-05-01T06:55:27.212Z,928.57
2019-05-01T06:56:26.230Z,928.55
2019-05-01T06:57:26.190Z,928.58
2019-05-01T06:58:26.190Z,928.57
2019-05-01T06:59:31.422Z,928.57
2019-05-01T07:00:26.134Z,928.55
2019-05-01T07:01:26.104Z,928.57
2019-05-01T07:02:29.920Z,928.56
2019-05-01T07:03:26.059Z,928.56
2019-05-01T07:04:26.015Z,928.57
2019-05-01T07:05:26.021Z,928.52
2019-05-01T07:06:30.907Z,928.53
2019-05-01T07:07:26.018Z,928.56
2019-05-01T07:08:29.457Z,928.58
2019-05-01T07:09:28.111Z,928.53
2019-05-01T07:10:31.499Z,928.52
2019-05-01T07:11:25.968Z,928.53
2019-05-01T07:12:28.326Z,928.57
2019-05-01T07:13:25.838Z,928.56
2019-05-01T07:14:25.821Z,928.55
2019-05-01T07:15:26.915Z,928.50
2019-05-01T07:16:25.774Z,928.52
2019-05-01T07:17:25.731Z,928.47
2019-05-01T07:18:28.989Z,928.51
2019-05-01T07:19:25.693Z,928.53
2019-05-01T07:20:25.687Z,928.51
2019-05-01T07:21:27.710Z,928.53
2019-05-01T07:22:25.616Z,928.47
2019-05-01T07:23:25.593Z,928.49
2019-05-01T07:24:27.941Z,928.46
2019-05-01T07:25:25.558Z,928.42
2019-05-01T07:26:25.507Z,928.42
2019-05-01T07:27:25.511Z,928.46
2019-05-01T07:28:28.766Z,928.47
2019-05-01T07:29:25.462Z,928.46
2019-05-01T07:30:25.443Z,928.48
2019-05-01T07:31:26.029Z,928.45
2019-05-01T07:32:25.384Z,928.48
2019-05-01T07:33:25.366Z,928.46
2019-05-01T07:34:26.231Z,928.47
2019-05-01T07:35:25.327Z,928.45
2019-05-01T07:36:25.291Z,928.39
2019-05-01T07:37:26.007Z,928.46
2019-05-01T07:38:25.253Z,928.48
2019-05-01T07:39:25.230Z,928.46
2019-05-01T07:40:28.878Z,928.51
2019-05-01T07:41:25.193Z,928.51
2019-05-01T07:42:25.154Z,928.55
2019-05-01T07:43:25.788Z,928.56
2019-05-01T07:44:25.119Z,928.63
2019-05-01T07:45:26.651Z,928.58
2019-05-01T07:46:25.075Z,928.54
2019-05-01T07:47:25.937Z,928.59
2019-05-01T07:48:24.998Z,928.59
2019-05-01T07:49:25.000Z,928.59
2019-05-01T07:50:31.523Z,928.62
2019-05-01T07:51:24.954Z,928.62
2019-05-01T07:52:24.932Z,928.63
2019-05-01T07:53:28.353Z,928.58
2019-05-01T07:54:24.855Z,928.63
2019-05-01T07:55:24.834Z,928.59
2019-05-01T07:56:28.166Z,928.66
2019-05-01T07:57:24.819Z,928.56
2019-05-01T07:58:24.787Z,928.60
2019-05-01T07:59:27.493Z,928.60
2019-05-01T08:00:24.723Z,928.58
2019-05-01T08:01:24.723Z,928.59
2019-05-01T08:02:25.802Z,928.60
2019-05-01T08:03:24.647Z,928.63
2019-05-01T08:04:35.989Z,928.64
2019-05-01T08:05:24.630Z,928.62
2019-05-01T08:06:24.613Z,928.69
2019-05-01T08:07:27.887Z,928.67
2019-05-01T08:08:24.559Z,928.69
2019-05-01T08:09:24.511Z,928.71
2019-05-01T08:10:25.539Z,928.70
2019-05-01T08:11:24.462Z,928.68
2019-05-01T08:12:25.867Z,928.68
2019-05-01T08:13:24.434Z,928.67
2019-05-01T08:14:24.421Z,928.68
2019-05-01T08:15:27.648Z,928.62
2019-05-01T08:16:24.378Z,928.67
2019-05-01T08:17:24.330Z,928.65
2019-05-01T08:18:27.892Z,928.66
2019-05-01T08:19:24.308Z,928.66
2019-05-01T08:20:24.279Z,928.68
2019-05-01T08:21:26.063Z,928.67
2019-05-01T08:22:24.236Z,928.65
2019-05-01T08:23:24.201Z,928.65
2019-05-01T08:24:24.743Z,928.64
2019-05-01T08:25:24.156Z,928.65
2019-05-01T08:26:24.148Z,928.67
2019-05-01T08:27:24.110Z,928.68
2019-05-01T08:28:27.714Z,928.71
2019-05-01T08:29:24.082Z,928.67
2019-05-01T08:30:24.027Z,928.67
2019-05-01T08:31:27.802Z,928.76
2019-05-01T08:32:24.002Z,928.70
2019-05-01T08:33:23.982Z,928.76
2019-05-01T08:34:25.369Z,928.80
2019-05-01T08:35:23.927Z,928.82
2019-05-01T08:36:23.936Z,928.83
2019-05-01T08:37:26.883Z,928.86
2019-05-01T08:38:23.871Z,928.82
2019-05-01T08:39:23.817Z,928.88
2019-05-01T08:40:23.811Z,928.87
2019-05-01T08:41:26.986Z,928.87
2019-05-01T08:42:23.781Z,928.87
2019-05-01T08:43:23.758Z,928.88
2019-05-01T08:44:24.833Z,928.88
2019-05-01T08:45:23.713Z,928.91
2019-05-01T08:46:24.942Z,928.88
2019-05-01T08:47:25.890Z,928.83
2019-05-01T08:48:23.640Z,928.83
2019-05-01T08:49:23.614Z,928.78
2019-05-01T08:50:24.859Z,928.80
2019-05-01T08:51:23.574Z,928.73
2019-05-01T08:52:23.525Z,928.79
2019-05-01T08:53:23.502Z,928.81
2019-05-01T08:54:23.514Z,928.81
2019-05-01T08:55:23.482Z,928.85
2019-05-01T08:56:23.532Z,928.81
2019-05-01T08:57:23.436Z,928.83
2019-05-01T08:58:23.395Z,928.82
2019-05-01T08:59:24.007Z,928.86
2019-05-01T09:00:23.365Z,928.86
2019-05-01T09:01:23.343Z,928.91
2019-05-01T09:02:23.329Z,929.00
2019-05-01T09:03:23.292Z,928.99
2019-05-01T09:04:25.270Z,929.01
2019-05-01T09:05:29.182Z,929.03
2019-05-01T09:06:34.178Z,929.04
2019-05-01T09:07:24.133Z,929.03
2019-05-01T09:08:26.986Z,929.05
2019-05-01T09:09:23.156Z,929.04
2019-05-01T09:10:23.273Z,929.05
2019-05-01T09:11:23.111Z,929.06
2019-05-01T09:12:23.065Z,929.09
2019-05-01T09:13:23.725Z,929.14
2019-05-01T09:14:23.016Z,929.14
2019-05-01T09:15:23.022Z,929.12
2019-05-01T09:16:23.495Z,929.13
2019-05-01T09:17:22.982Z,929.16
2019-05-01T09:18:22.954Z,929.13
2019-05-01T09:19:22.930Z,929.14
2019-05-01T09:20:22.910Z,929.18
2019-05-01T09:21:22.884Z,929.18
2019-05-01T09:22:22.908Z,929.18
2019-05-01T09:23:22.828Z,929.18
2019-05-01T09:24:27.408Z,929.15
2019-05-01T09:25:22.795Z,929.12
2019-05-01T09:26:22.758Z,929.13
2019-05-01T09:27:24.037Z,929.21
2019-05-01T09:28:22.722Z,929.16
2019-05-01T09:29:22.699Z,929.16
2019-05-01T09:30:26.980Z,929.16
2019-05-01T09:31:22.647Z,929.18
2019-05-01T09:32:22.630Z,929.20
2019-05-01T09:33:26.115Z,929.18
2019-05-01T09:34:22.558Z,929.20
2019-05-01T09:35:22.531Z,929.25
2019-05-01T09:36:22.534Z,929.19
2019-05-01T09:37:22.505Z,929.22
2019-05-01T09:38:22.496Z,929.22
2019-05-01T09:39:22.469Z,929.25
2019-05-01T09:40:22.434Z,929.23
2019-05-01T09:41:22.418Z,929.27
2019-05-01T09:42:23.793Z,929.33
2019-05-01T09:43:22.378Z,929.34
2019-05-01T09:44:22.341Z,929.34
2019-05-01T09:45:22.331Z,929.41
2019-05-01T09:46:22.304Z,929.43
2019-05-01T09:47:22.274Z,929.43
2019-05-01T09:48:22.264Z,929.48
2019-05-01T09:49:22.240Z,929.49
2019-05-01T09:50:25.899Z,929.49
2019-05-01T09:51:22.181Z,929.52
2019-05-01T09:52:23.406Z,929.54
2019-05-01T09:53:22.153Z,929.57
2019-05-01T09:54:22.126Z,929.57
2019-05-01T09:55:23.014Z,929.62
2019-05-01T09:56:22.077Z,929.59
2019-05-01T09:57:22.027Z,929.63
2019-05-01T09:58:22.011Z,929.72
2019-05-01T09:59:22.007Z,929.71
2019-05-01T10:00:21.992Z,929.74
2019-05-01T10:01:24.556Z,929.78
2019-05-01T10:02:21.949Z,929.81
2019-05-01T10:03:21.921Z,929.83
2019-05-01T10:04:25.456Z,929.84
2019-05-01T10:05:28.594Z,929.84
2019-05-01T10:06:21.851Z,929.75
2019-05-01T10:07:23.835Z,929.78
2019-05-01T10:08:21.813Z,929.84
2019-05-01T10:09:21.762Z,929.85
2019-05-01T10:10:24.756Z,929.90
2019-05-01T10:11:21.713Z,929.95
2019-05-01T10:12:21.721Z,929.96
2019-05-01T10:13:22.498Z,929.97
2019-05-01T10:14:21.677Z,929.98
2019-05-01T10:15:21.655Z,930.04
2019-05-01T10:16:21.636Z,930.14
2019-05-01T10:17:21.582Z,930.08
2019-05-01T10:18:21.563Z,930.15
2019-05-01T10:19:21.570Z,930.13
2019-05-01T10:20:21.544Z,930.14
2019-05-01T10:21:22.353Z,930.09
2019-05-01T10:22:21.512Z,930.10
2019-05-01T10:23:21.475Z,930.12
2019-05-01T10:24:21.475Z,930.11
2019-05-01T10:25:21.447Z,930.13
2019-05-01T10:26:24.050Z,930.17
2019-05-01T10:27:21.406Z,930.21
2019-05-01T10:28:21.374Z,930.24
2019-05-01T10:29:25.756Z,930.28
2019-05-01T10:30:21.341Z,930.27
2019-05-01T10:31:21.323Z,930.30
2019-05-01T10:32:21.662Z,930.39
2019-05-01T10:33:21.273Z,930.42
2019-05-01T10:34:21.270Z,930.49
2019-05-01T10:35:21.230Z,930.42
2019-05-01T10:36:21.227Z,930.40
2019-05-01T10:37:23.550Z,930.37
2019-05-01T10:38:21.186Z,930.33
2019-05-01T10:39:21.163Z,930.34
2019-05-01T10:40:22.400Z,930.28
2019-05-01T10:41:21.115Z,930.30
2019-05-01T10:42:21.108Z,930.35
2019-05-01T10:43:21.087Z,930.34
2019-05-01T10:44:21.055Z,930.32
2019-05-01T10:45:21.049Z,930.29
2019-05-01T10:46:21.002Z,930.33
2019-05-01T10:47:21.010Z,930.35
2019-05-01T10:48:21.003Z,930.36
2019-05-01T10:49:20.963Z,930.34
2019-05-01T10:50:20.949Z,930.39
2019-05-01T10:51:20.919Z,930.38
2019-05-01T10:52:20.913Z,930.37
2019-05-01T10:53:20.895Z,930.39
2019-05-01T10:54:20.866Z,930.36
2019-05-01T10:55:20.854Z,930.37
2019-05-01T10:56:20.837Z,930.42
2019-05-01T10:57:20.809Z,930.51
2019-05-01T10:58:20.800Z,930.49
2019-05-01T10:59:20.769Z,930.60
2019-05-01T11:00:20.747Z,930.61
2019-05-01T11:01:20.744Z,930.52
2019-05-01T11:02:20.700Z,930.44
2019-05-01T11:03:20.677Z,930.43
2019-05-01T11:04:20.689Z,930.44
2019-05-01T11:05:20.642Z,930.38
2019-05-01T11:06:20.657Z,930.45
2019-05-01T11:07:20.624Z,930.55
2019-05-01T11:08:20.619Z,930.74
2019-05-01T11:09:20.594Z,930.54
2019-05-01T11:10:20.567Z,930.60
2019-05-01T11:11:20.550Z,930.64
2019-05-01T11:12:20.539Z,930.67
2019-05-01T11:13:20.522Z,930.67
2019-05-01T11:14:20.505Z,930.57
2019-05-01T11:15:20.458Z,930.50
2019-05-01T11:16:20.456Z,930.47
2019-05-01T11:17:20.443Z,930.47
2019-05-01T11:18:20.432Z,930.50
2019-05-01T11:19:20.395Z,930.47
2019-05-01T11:20:20.362Z,930.46
2019-05-01T11:21:20.345Z,930.51
2019-05-01T11:22:20.359Z,930.54
2019-05-01T11:23:20.303Z,930.57
2019-05-01T11:24:20.392Z,930.61
2019-05-01T11:25:20.298Z,930.64
2019-05-01T11:26:20.265Z,930.65
2019-05-01T11:27:20.243Z,930.70
2019-05-01T11:28:20.225Z,930.71
2019-05-01T11:29:20.216Z,930.69
2019-05-01T11:30:20.167Z,930.66
2019-05-01T11:31:20.177Z,930.69
2019-05-01T11:32:20.147Z,930.67
2019-05-01T11:33:20.128Z,930.70
2019-05-01T11:34:20.114Z,930.79
2019-05-01T11:35:20.097Z,930.97
2019-05-01T11:36:20.080Z,931.10
2019-05-01T11:37:20.049Z,931.20
2019-05-01T11:38:20.039Z,931.31
2019-05-01T11:39:20.011Z,931.33
2019-05-01T11:40:19.981Z,931.29
2019-05-01T11:41:19.957Z,931.31
2019-05-01T11:42:19.964Z,931.15
2019-05-01T11:43:19.923Z,931.11
2019-05-01T11:44:19.923Z,931.11
2019-05-01T11:45:19.910Z,931.03
2019-05-01T11:46:19.884Z,931.05
2019-05-01T11:47:19.878Z,931.09
2019-05-01T11:48:19.830Z,931.33
2019-05-01T11:49:19.851Z,931.53
2019-05-01T11:50:19.822Z,931.41
2019-05-01T11:51:19.793Z,931.27
2019-05-01T11:52:19.787Z,931.41
2019-05-01T11:53:19.767Z,931.49
2019-05-01T11:54:19.744Z,931.26
2019-05-01T11:55:19.737Z,931.39
2019-05-01T11:56:19.715Z,931.63
2019-05-01T11:57:19.707Z,931.74
2019-05-01T11:58:19.690Z,931.89
2019-05-01T11:59:19.641Z,931.78
2019-05-01T12:00:19.654Z,931.86
2019-05-01T12:01:19.632Z,931.90
2019-05-01T12:02:19.614Z,931.90
2019-05-01T12:03:19.606Z,931.23
2019-05-01T12:04:19.569Z,931.45
2019-05-01T12:05:19.578Z,931.10
2019-05-01T12:06:23.046Z,931.07
2019-05-01T12:07:19.548Z,931.11
2019-05-01T12:08:19.531Z,931.10
2019-05-01T12:09:19.485Z,931.14
2019-05-01T12:10:19.507Z,931.18
2019-05-01T12:11:19.487Z,931.14
2019-05-01T12:12:19.459Z,931.10
2019-05-01T12:13:19.441Z,931.06
2019-05-01T12:14:19.427Z,931.10
2019-05-01T12:15:19.422Z,931.04
2019-05-01T12:16:19.377Z,931.09
2019-05-01T12:17:19.394Z,931.17
2019-05-01T12:18:19.374Z,931.25
2019-05-01T12:19:19.355Z,931.45
2019-05-01T12:20:19.337Z,931.48
2019-05-01T12:21:19.323Z,931.70
2019-05-01T12:22:19.301Z,931.69
2019-05-01T12:23:19.278Z,931.82
2019-05-01T12:24:19.273Z,931.81
2019-05-01T12:25:19.233Z,931.62
2019-05-01T12:26:19.214Z,931.66
2019-05-01T12:27:19.231Z,931.58
2019-05-01T12:28:19.198Z,931.52